createdAt,value
2018-04-08T00:00:01.016Z,0
2018-04-08T00:00:27.159Z,0
2018-04-08T00:00:53.302Z,0
2018-04-08T00:01:19.440Z,0
2018-04-08T00:01:45.578Z,0
2018-04-08T00:02:11.715Z,0
2018-04-08T00:02:37.877Z,0
2018-04-08T00:03:04.017Z,0
2018-04-08T00:03:30.156Z,0
2018-04-08T00:03:56.292Z,0
2018-04-08T00:04:22.431Z,0
2018-04-08T00:04:48.567Z,0
2018-04-08T00:05:14.712Z,0
2018-04-08T00:05:40.847Z,0
2018-04-08T00:06:06.991Z,0
2018-04-08T00:06:33.133Z,0
2018-04-08T00:06:59.273Z,0
2018-04-08T00:07:25.407Z,0
2018-04-08T00:07:51.566Z,0
2018-04-08T00:08:17.708Z,0
2018-04-08T00:08:43.866Z,0
2018-04-08T00:09:10.008Z,0
2018-04-08T00:09:36.175Z,0
2018-04-08T00:10:02.311Z,0
2018-04-08T00:10:28.447Z,0
2018-04-08T00:10:54.587Z,0
2018-04-08T00:11:20.750Z,0
2018-04-08T00:11:46.892Z,0
2018-04-08T00:12:13.030Z,0
2018-04-08T00:12:39.171Z,0
2018-04-08T00:13:05.314Z,0
2018-04-08T00:13:31.456Z,0
2018-04-08T00:13:57.595Z,0
2018-04-08T00:14:23.736Z,0
2018-04-08T00:14:49.902Z,0
2018-04-08T00:15:16.060Z,0
2018-04-08T00:15:42.199Z,0
2018-04-08T00:16:08.341Z,0
2018-04-08T00:16:34.484Z,0
2018-04-08T00:17:00.618Z,0
2018-04-08T00:17:26.776Z,0
2018-04-08T00:17:52.917Z,0
2018-04-08T00:18:19.053Z,0
2018-04-08T00:18:45.195Z,0
2018-04-08T00:19:11.338Z,0
2018-04-08T00:19:37.473Z,0
2018-04-08T00:20:03.618Z,0
2018-04-08T00:20:29.761Z,0
2018-04-08T00:20:55.897Z,0
2018-04-08T00:21:22.067Z,0
2018-04-08T00:21:48.211Z,0
2018-04-08T00:22:14.358Z,0
2018-04-08T00:22:40.495Z,0
2018-04-08T00:23:06.702Z,0
2018-04-08T00:23:32.793Z,0
2018-04-08T00:23:58.933Z,0
2018-04-08T00:24:25.068Z,0
2018-04-08T00:24:51.234Z,0
2018-04-08T00:25:17.409Z,0
2018-04-08T00:25:43.540Z,0
2018-04-08T00:26:09.685Z,0
2018-04-08T00:26:35.819Z,0
2018-04-08T00:27:01.963Z,0
2018-04-08T00:27:28.103Z,0
2018-04-08T00:27:54.246Z,0
2018-04-08T00:28:20.382Z,0
2018-04-08T00:28:46.531Z,0
2018-04-08T00:29:12.665Z,0
2018-04-08T00:29:38.802Z,0
2018-04-08T00:30:04.967Z,0
2018-04-08T00:30:31.142Z,0
2018-04-08T00:30:57.270Z,0
2018-04-08T00:31:23.437Z,0
2018-04-08T00:31:49.578Z,0
2018-04-08T00:32:15.725Z,0
2018-04-08T00:32:41.857Z,0
2018-04-08T00:33:08.006Z,0
2018-04-08T00:33:34.137Z,0
2018-04-08T00:34:00.283Z,0
2018-04-08T00:34:26.418Z,0
2018-04-08T00:34:52.552Z,0
2018-04-08T00:35:18.694Z,0
2018-04-08T00:35:44.854Z,0
2018-04-08T00:36:10.993Z,0
2018-04-08T00:36:37.130Z,0
2018-04-08T00:37:03.270Z,0
2018-04-08T00:37:29.404Z,0
2018-04-08T00:37:55.551Z,0
2018-04-08T00:38:21.687Z,0
2018-04-08T00:38:47.829Z,0
2018-04-08T00:39:13.963Z,0
2018-04-08T00:39:40.100Z,0
2018-04-08T00:40:06.234Z,0
2018-04-08T00:40:32.379Z,0
2018-04-08T00:40:58.513Z,0
2018-04-08T00:41:24.658Z,0
2018-04-08T00:41:50.791Z,0
2018-04-08T00:42:16.938Z,0
2018-04-08T00:42:43.069Z,0
2018-04-08T00:43:09.214Z,0
2018-04-08T00:43:35.376Z,0
2018-04-08T00:44:01.520Z,0
2018-04-08T00:44:27.663Z,0
2018-04-08T00:44:53.803Z,0
2018-04-08T00:45:19.944Z,0
2018-04-08T00:45:46.081Z,0
2018-04-08T00:46:12.223Z,0
2018-04-08T00:46:38.365Z,0
2018-04-08T00:47:04.507Z,0
2018-04-08T00:47:30.654Z,0
2018-04-08T00:47:56.817Z,0
2018-04-08T00:48:22.958Z,0
2018-04-08T00:48:49.099Z,0
2018-04-08T00:49:15.252Z,0
2018-04-08T00:49:41.375Z,0
2018-04-08T00:50:07.523Z,0
2018-04-08T00:50:33.656Z,0
2018-04-08T00:50:59.795Z,0
2018-04-08T00:51:25.937Z,0
2018-04-08T00:51:52.077Z,0
2018-04-08T00:52:18.210Z,0
2018-04-08T00:52:44.350Z,0
2018-04-08T00:53:10.496Z,0
2018-04-08T00:53:36.630Z,0
2018-04-08T00:54:02.764Z,0
2018-04-08T00:54:28.904Z,0
2018-04-08T00:54:55.046Z,0
2018-04-08T00:55:21.188Z,0
2018-04-08T00:55:47.326Z,0
2018-04-08T00:56:13.467Z,0
2018-04-08T00:56:39.604Z,0
2018-04-08T00:57:05.753Z,0
2018-04-08T00:57:31.880Z,0
2018-04-08T00:57:58.021Z,0
2018-04-08T00:58:24.188Z,0
2018-04-08T00:58:50.327Z,0
2018-04-08T00:59:16.458Z,0
2018-04-08T00:59:42.628Z,0
2018-04-08T01:00:08.759Z,0
2018-04-08T01:00:34.921Z,0
2018-04-08T01:01:01.058Z,0
2018-04-08T01:01:27.203Z,0
2018-04-08T01:01:53.336Z,0
2018-04-08T01:02:19.479Z,0
2018-04-08T01:02:45.614Z,0
2018-04-08T01:03:11.761Z,0
2018-04-08T01:03:37.893Z,0
2018-04-08T01:04:04.060Z,0
2018-04-08T01:04:30.203Z,0
2018-04-08T01:04:56.341Z,0
2018-04-08T01:05:22.508Z,0
2018-04-08T01:05:48.646Z,0
2018-04-08T01:06:14.782Z,0
2018-04-08T01:06:40.919Z,0
2018-04-08T01:07:07.073Z,0
2018-04-08T01:07:33.202Z,0
2018-04-08T01:07:59.344Z,0
2018-04-08T01:08:25.489Z,0
2018-04-08T01:08:51.622Z,0
2018-04-08T01:09:17.767Z,0
2018-04-08T01:09:43.898Z,0
2018-04-08T01:10:10.040Z,0
2018-04-08T01:10:36.178Z,0
2018-04-08T01:11:02.329Z,0
2018-04-08T01:11:28.460Z,0
2018-04-08T01:11:54.602Z,0
2018-04-08T01:12:20.774Z,0
2018-04-08T01:12:46.913Z,0
2018-04-08T01:13:13.056Z,0
2018-04-08T01:13:39.189Z,0
2018-04-08T01:14:05.367Z,0
2018-04-08T01:14:31.501Z,0
2018-04-08T01:14:57.663Z,0
2018-04-08T01:15:23.806Z,0
2018-04-08T01:15:49.949Z,0
2018-04-08T01:16:16.081Z,0
2018-04-08T01:16:42.235Z,0
2018-04-08T01:17:08.365Z,0
2018-04-08T01:17:34.528Z,0
2018-04-08T01:18:00.666Z,0
2018-04-08T01:18:26.801Z,0
2018-04-08T01:18:52.968Z,0
2018-04-08T01:19:19.109Z,0
2018-04-08T01:19:45.265Z,0
2018-04-08T01:20:11.404Z,0
2018-04-08T01:20:37.541Z,0
2018-04-08T01:21:03.676Z,0
2018-04-08T01:21:29.821Z,0
2018-04-08T01:21:55.959Z,0
2018-04-08T01:22:22.118Z,0
2018-04-08T01:22:48.260Z,0
2018-04-08T01:23:14.395Z,0
2018-04-08T01:23:40.530Z,0
2018-04-08T01:24:06.674Z,0
2018-04-08T01:24:32.816Z,0
2018-04-08T01:24:58.950Z,0
2018-04-08T01:25:25.087Z,0
2018-04-08T01:25:51.230Z,0
2018-04-08T01:26:17.365Z,0
2018-04-08T01:26:43.505Z,0
2018-04-08T01:27:09.640Z,0
2018-04-08T01:27:35.785Z,0
2018-04-08T01:28:01.921Z,0
2018-04-08T01:28:28.062Z,0
2018-04-08T01:28:54.195Z,0
2018-04-08T01:29:20.348Z,0
2018-04-08T01:29:46.479Z,0
2018-04-08T01:30:12.645Z,0
2018-04-08T01:30:38.785Z,0
2018-04-08T01:31:04.925Z,0
2018-04-08T01:31:31.066Z,0
2018-04-08T01:31:57.209Z,0
2018-04-08T01:32:23.350Z,0
2018-04-08T01:32:49.489Z,0
2018-04-08T01:33:15.660Z,0
2018-04-08T01:33:41.794Z,0
2018-04-08T01:34:07.930Z,0
2018-04-08T01:34:34.078Z,0
2018-04-08T01:35:00.242Z,0
2018-04-08T01:35:26.385Z,0
2018-04-08T01:35:52.526Z,0
2018-04-08T01:36:18.655Z,0
2018-04-08T01:36:44.817Z,0
2018-04-08T01:37:10.955Z,0
2018-04-08T01:37:37.102Z,0
2018-04-08T01:38:03.241Z,0
2018-04-08T01:38:29.387Z,0
2018-04-08T01:38:55.518Z,0
2018-04-08T01:39:21.661Z,0
2018-04-08T01:39:47.802Z,0
2018-04-08T01:40:13.941Z,0
2018-04-08T01:40:40.077Z,0
2018-04-08T01:41:06.212Z,0
2018-04-08T01:41:32.353Z,0
2018-04-08T01:41:58.511Z,0
2018-04-08T01:42:24.653Z,0
2018-04-08T01:42:50.789Z,0
2018-04-08T01:43:16.926Z,0
2018-04-08T01:43:43.070Z,0
2018-04-08T01:44:09.207Z,0
2018-04-08T01:44:35.344Z,0
2018-04-08T01:45:01.481Z,0
2018-04-08T01:45:27.621Z,0
2018-04-08T01:45:53.759Z,0
2018-04-08T01:46:19.917Z,0
2018-04-08T01:46:46.058Z,0
2018-04-08T01:47:12.199Z,0
2018-04-08T01:47:38.334Z,0
2018-04-08T01:48:04.476Z,0
2018-04-08T01:48:30.616Z,0
2018-04-08T01:48:56.759Z,0
2018-04-08T01:49:22.944Z,0
2018-04-08T01:49:49.089Z,0
2018-04-08T01:50:15.223Z,0
2018-04-08T01:50:41.361Z,0
2018-04-08T01:51:07.503Z,0
2018-04-08T01:51:33.666Z,0
2018-04-08T01:51:59.805Z,0
2018-04-08T01:52:25.944Z,0
2018-04-08T01:52:52.081Z,0
2018-04-08T01:53:18.215Z,0
2018-04-08T01:53:44.356Z,0
2018-04-08T01:54:10.500Z,0
2018-04-08T01:54:36.640Z,0
2018-04-08T01:55:02.775Z,0
2018-04-08T01:55:28.913Z,0
2018-04-08T01:55:55.053Z,0
2018-04-08T01:56:21.189Z,0
2018-04-08T01:56:47.331Z,0
2018-04-08T01:57:13.473Z,0
2018-04-08T01:57:39.610Z,0
2018-04-08T01:58:05.748Z,0
2018-04-08T01:58:31.893Z,0
2018-04-08T01:58:58.033Z,0
2018-04-08T01:59:24.197Z,0
2018-04-08T01:59:50.343Z,0
2018-04-08T02:00:16.477Z,0
2018-04-08T02:00:42.618Z,0
2018-04-08T02:01:08.755Z,0
2018-04-08T02:01:34.899Z,0
2018-04-08T02:02:01.041Z,0
2018-04-08T02:02:27.177Z,0
2018-04-08T02:02:53.307Z,0
2018-04-08T02:03:19.476Z,0
2018-04-08T02:03:45.617Z,0
2018-04-08T02:04:11.789Z,0
2018-04-08T02:04:37.928Z,0
2018-04-08T02:05:04.086Z,0
2018-04-08T02:05:30.234Z,0
2018-04-08T02:05:56.372Z,0
2018-04-08T02:06:22.557Z,0
2018-04-08T02:06:48.700Z,0
2018-04-08T02:07:14.835Z,0
2018-04-08T02:07:40.997Z,0
2018-04-08T02:08:07.144Z,0
2018-04-08T02:08:33.275Z,0
2018-04-08T02:08:59.415Z,0
2018-04-08T02:09:25.560Z,0
2018-04-08T02:09:51.691Z,0
2018-04-08T02:10:17.833Z,0
2018-04-08T02:10:43.970Z,0
2018-04-08T02:11:10.115Z,0
2018-04-08T02:11:36.247Z,0
2018-04-08T02:12:02.391Z,0
2018-04-08T02:12:28.522Z,0
2018-04-08T02:12:54.661Z,0
2018-04-08T02:13:20.802Z,0
2018-04-08T02:13:46.944Z,0
2018-04-08T02:14:13.082Z,0
2018-04-08T02:14:39.227Z,0
2018-04-08T02:15:05.365Z,0
2018-04-08T02:15:31.507Z,0
2018-04-08T02:15:57.644Z,0
2018-04-08T02:16:23.778Z,0
2018-04-08T02:16:49.922Z,0
2018-04-08T02:17:16.054Z,0
2018-04-08T02:17:42.199Z,0
2018-04-08T02:18:08.333Z,0
2018-04-08T02:18:34.501Z,0
2018-04-08T02:19:00.642Z,0
2018-04-08T02:19:26.790Z,0
2018-04-08T02:19:52.918Z,0
2018-04-08T02:20:19.056Z,0
2018-04-08T02:20:45.198Z,0
2018-04-08T02:21:11.362Z,0
2018-04-08T02:21:37.501Z,0
2018-04-08T02:22:03.633Z,0
2018-04-08T02:22:29.775Z,0
2018-04-08T02:22:55.940Z,0
2018-04-08T02:23:22.080Z,0
2018-04-08T02:23:48.221Z,0
2018-04-08T02:24:14.359Z,0
2018-04-08T02:24:40.498Z,0
2018-04-08T02:25:06.644Z,0
2018-04-08T02:25:32.774Z,0
2018-04-08T02:25:58.918Z,0
2018-04-08T02:26:25.056Z,0
2018-04-08T02:26:51.195Z,0
2018-04-08T02:27:17.357Z,0
2018-04-08T02:27:43.505Z,0
2018-04-08T02:28:09.655Z,0
2018-04-08T02:28:35.800Z,0
2018-04-08T02:29:01.945Z,0
2018-04-08T02:29:28.080Z,0
2018-04-08T02:29:54.220Z,0
2018-04-08T02:30:20.369Z,0
2018-04-08T02:30:46.502Z,0
2018-04-08T02:31:12.638Z,0
2018-04-08T02:31:38.775Z,0
2018-04-08T02:32:04.937Z,0
2018-04-08T02:32:31.077Z,0
2018-04-08T02:32:57.217Z,0
2018-04-08T02:33:23.358Z,0
2018-04-08T02:33:49.496Z,0
2018-04-08T02:34:15.633Z,0
2018-04-08T02:34:41.795Z,0
2018-04-08T02:35:07.953Z,0
2018-04-08T02:35:34.130Z,0
2018-04-08T02:36:00.254Z,0
2018-04-08T02:36:26.419Z,0
2018-04-08T02:36:52.600Z,0
2018-04-08T02:37:18.764Z,0
2018-04-08T02:37:44.908Z,0
2018-04-08T02:38:11.041Z,0
2018-04-08T02:38:37.183Z,0
2018-04-08T02:39:03.324Z,0
2018-04-08T02:39:29.457Z,0
2018-04-08T02:39:55.618Z,0
2018-04-08T02:40:21.758Z,0
2018-04-08T02:40:47.896Z,0
2018-04-08T02:41:14.049Z,0
2018-04-08T02:41:40.188Z,0
2018-04-08T02:42:06.325Z,0
2018-04-08T02:42:32.462Z,0
2018-04-08T02:42:58.596Z,0
2018-04-08T02:43:24.764Z,0
2018-04-08T02:43:50.935Z,0
2018-04-08T02:44:17.076Z,0
2018-04-08T02:44:43.210Z,0
2018-04-08T02:45:09.379Z,0
2018-04-08T02:45:35.518Z,0
2018-04-08T02:46:01.665Z,0
2018-04-08T02:46:27.800Z,0
2018-04-08T02:46:53.990Z,0
2018-04-08T02:47:20.130Z,0
2018-04-08T02:47:46.264Z,0
2018-04-08T02:48:12.399Z,0
2018-04-08T02:48:38.540Z,0
2018-04-08T02:49:04.704Z,0
2018-04-08T02:49:30.842Z,0
2018-04-08T02:49:57.001Z,0
2018-04-08T02:50:23.141Z,0
2018-04-08T02:50:49.284Z,0
2018-04-08T02:51:15.447Z,0
2018-04-08T02:51:41.605Z,0
2018-04-08T02:52:07.741Z,0
2018-04-08T02:52:33.899Z,0
2018-04-08T02:53:00.039Z,0
2018-04-08T02:53:26.182Z,0
2018-04-08T02:53:52.323Z,0
2018-04-08T02:54:18.483Z,0
2018-04-08T02:54:44.619Z,0
2018-04-08T02:55:10.761Z,0
2018-04-08T02:55:36.897Z,0
2018-04-08T02:56:03.059Z,0
2018-04-08T02:56:29.200Z,0
2018-04-08T02:56:55.332Z,0
2018-04-08T02:57:21.475Z,0
2018-04-08T02:57:47.638Z,0
2018-04-08T02:58:13.771Z,0
2018-04-08T02:58:39.912Z,0
2018-04-08T02:59:06.051Z,0
2018-04-08T02:59:32.190Z,0
2018-04-08T02:59:58.334Z,0
2018-04-08T03:00:24.467Z,0
2018-04-08T03:00:50.615Z,0
2018-04-08T03:01:16.753Z,0
2018-04-08T03:01:42.888Z,0
2018-04-08T03:02:09.032Z,0
2018-04-08T03:02:35.170Z,0
2018-04-08T03:03:01.313Z,0
2018-04-08T03:03:27.443Z,0
2018-04-08T03:03:53.604Z,0
2018-04-08T03:04:19.769Z,0
2018-04-08T03:04:45.928Z,0
2018-04-08T03:05:12.065Z,0
2018-04-08T03:05:38.199Z,0
2018-04-08T03:06:04.339Z,0
2018-04-08T03:06:30.483Z,0
2018-04-08T03:06:56.615Z,0
2018-04-08T03:07:22.761Z,0
2018-04-08T03:07:48.896Z,0
2018-04-08T03:08:15.042Z,0
2018-04-08T03:08:41.171Z,0
2018-04-08T03:09:07.311Z,0
2018-04-08T03:09:33.450Z,0
2018-04-08T03:09:59.608Z,0
2018-04-08T03:10:25.745Z,0
2018-04-08T03:10:51.883Z,0
2018-04-08T03:11:18.051Z,0
2018-04-08T03:11:44.189Z,0
2018-04-08T03:12:10.329Z,0
2018-04-08T03:12:36.462Z,0
2018-04-08T03:13:02.608Z,0
2018-04-08T03:13:28.746Z,0
2018-04-08T03:13:54.888Z,0
2018-04-08T03:14:21.028Z,0
2018-04-08T03:14:47.183Z,0
2018-04-08T03:15:13.317Z,0
2018-04-08T03:15:39.463Z,0
2018-04-08T03:16:05.599Z,0
2018-04-08T03:16:31.738Z,0
2018-04-08T03:16:57.873Z,0
2018-04-08T03:17:24.012Z,0
2018-04-08T03:17:50.160Z,0
2018-04-08T03:18:16.292Z,0
2018-04-08T03:18:42.435Z,0
2018-04-08T03:19:08.573Z,0
2018-04-08T03:19:34.718Z,0
2018-04-08T03:20:00.855Z,0
2018-04-08T03:20:26.995Z,0
2018-04-08T03:20:53.130Z,0
2018-04-08T03:21:19.272Z,0
2018-04-08T03:21:45.420Z,0
2018-04-08T03:22:11.559Z,0
2018-04-08T03:22:37.696Z,0
2018-04-08T03:23:03.832Z,0
2018-04-08T03:23:29.981Z,0
2018-04-08T03:23:56.118Z,0
2018-04-08T03:24:22.253Z,0
2018-04-08T03:24:48.392Z,0
2018-04-08T03:25:14.535Z,0
2018-04-08T03:25:40.694Z,0
2018-04-08T03:26:06.832Z,0
2018-04-08T03:26:32.970Z,0
2018-04-08T03:26:59.107Z,0
2018-04-08T03:27:25.276Z,0
2018-04-08T03:27:51.440Z,0
2018-04-08T03:28:17.577Z,0
2018-04-08T03:28:43.728Z,0
2018-04-08T03:29:09.863Z,0
2018-04-08T03:29:35.999Z,0
2018-04-08T03:30:02.163Z,0
2018-04-08T03:30:28.326Z,0
2018-04-08T03:30:54.463Z,0
2018-04-08T03:31:20.595Z,0
2018-04-08T03:31:46.740Z,0
2018-04-08T03:32:12.877Z,0
2018-04-08T03:32:39.040Z,0
2018-04-08T03:33:05.179Z,0
2018-04-08T03:33:31.347Z,0
2018-04-08T03:33:57.508Z,0
2018-04-08T03:34:23.642Z,0
2018-04-08T03:34:49.788Z,0
2018-04-08T03:35:15.955Z,0
2018-04-08T03:35:42.092Z,0
2018-04-08T03:36:08.227Z,0
2018-04-08T03:36:34.368Z,0
2018-04-08T03:37:00.556Z,0
2018-04-08T03:37:26.698Z,0
2018-04-08T03:37:52.839Z,0
2018-04-08T03:38:19.004Z,0
2018-04-08T03:38:45.145Z,0
2018-04-08T03:39:11.312Z,0
2018-04-08T03:39:37.443Z,0
2018-04-08T03:40:03.585Z,0
2018-04-08T03:40:29.721Z,0
2018-04-08T03:40:55.864Z,0
2018-04-08T03:41:22.002Z,0
2018-04-08T03:41:48.139Z,0
2018-04-08T03:42:14.327Z,0
2018-04-08T03:42:40.462Z,0
2018-04-08T03:43:06.606Z,0
2018-04-08T03:43:32.745Z,0
2018-04-08T03:43:58.883Z,0
2018-04-08T03:44:25.024Z,0
2018-04-08T03:44:51.161Z,0
2018-04-08T03:45:17.297Z,0
2018-04-08T03:45:43.439Z,0
2018-04-08T03:46:09.573Z,0
2018-04-08T03:46:35.710Z,0
2018-04-08T03:47:01.854Z,0
2018-04-08T03:47:27.999Z,0
2018-04-08T03:47:54.138Z,0
2018-04-08T03:48:20.326Z,0
2018-04-08T03:48:46.461Z,0
2018-04-08T03:49:12.598Z,0
2018-04-08T03:49:38.743Z,0
2018-04-08T03:50:04.880Z,0
2018-04-08T03:50:31.012Z,0
2018-04-08T03:50:57.148Z,0
2018-04-08T03:51:23.293Z,0
2018-04-08T03:51:49.431Z,0
2018-04-08T03:52:15.563Z,0
2018-04-08T03:52:41.704Z,0
2018-04-08T03:53:07.845Z,0
2018-04-08T03:53:33.997Z,0
2018-04-08T03:54:00.135Z,0
2018-04-08T03:54:26.271Z,0
2018-04-08T03:54:52.414Z,0
2018-04-08T03:55:18.574Z,0
2018-04-08T03:55:44.716Z,0
2018-04-08T03:56:10.850Z,0
2018-04-08T03:56:36.993Z,0
2018-04-08T03:57:03.129Z,0
2018-04-08T03:57:29.273Z,0
2018-04-08T03:57:55.482Z,0
2018-04-08T03:58:21.578Z,0
2018-04-08T03:58:47.714Z,0
2018-04-08T03:59:13.856Z,0
2018-04-08T03:59:39.994Z,0
2018-04-08T04:00:06.127Z,0
2018-04-08T04:00:32.262Z,0
2018-04-08T04:00:58.423Z,0
2018-04-08T04:01:24.569Z,0
2018-04-08T04:01:50.704Z,0
2018-04-08T04:02:16.841Z,0
2018-04-08T04:02:42.988Z,0
2018-04-08T04:03:09.122Z,0
2018-04-08T04:03:35.259Z,0
2018-04-08T04:04:01.402Z,0
2018-04-08T04:04:27.541Z,0
2018-04-08T04:04:53.673Z,0
2018-04-08T04:05:19.841Z,0
2018-04-08T04:05:45.999Z,0
2018-04-08T04:06:12.136Z,0
2018-04-08T04:06:38.281Z,0
2018-04-08T04:07:04.418Z,0
2018-04-08T04:07:30.557Z,0
2018-04-08T04:07:56.692Z,0
2018-04-08T04:08:22.852Z,0
2018-04-08T04:08:48.994Z,0
2018-04-08T04:09:15.137Z,0
2018-04-08T04:09:41.269Z,0
2018-04-08T04:10:07.406Z,0
2018-04-08T04:10:33.550Z,0
2018-04-08T04:10:59.709Z,0
2018-04-08T04:11:25.848Z,0
2018-04-08T04:11:51.985Z,0
2018-04-08T04:12:18.125Z,0
2018-04-08T04:12:44.272Z,0
2018-04-08T04:13:10.403Z,0
2018-04-08T04:13:36.539Z,4
2018-04-08T04:14:02.684Z,4
2018-04-08T04:14:28.821Z,4
2018-04-08T04:14:54.957Z,4
2018-04-08T04:15:21.091Z,4
2018-04-08T04:15:47.230Z,0
2018-04-08T04:16:13.368Z,0
2018-04-08T04:16:39.507Z,0
2018-04-08T04:17:05.650Z,4
2018-04-08T04:17:31.783Z,4
2018-04-08T04:17:57.923Z,4
2018-04-08T04:18:24.068Z,4
2018-04-08T04:18:50.201Z,0
2018-04-08T04:19:16.341Z,4
2018-04-08T04:19:42.473Z,4
2018-04-08T04:20:08.614Z,4
2018-04-08T04:20:34.754Z,8
2018-04-08T04:21:00.890Z,4
2018-04-08T04:21:27.027Z,4
2018-04-08T04:21:53.166Z,8
2018-04-08T04:22:19.307Z,4
2018-04-08T04:22:45.473Z,8
2018-04-08T04:23:11.611Z,8
2018-04-08T04:23:37.776Z,8
2018-04-08T04:24:03.916Z,8
2018-04-08T04:24:30.058Z,8
2018-04-08T04:24:56.197Z,12
2018-04-08T04:25:22.327Z,8
2018-04-08T04:25:48.464Z,12
2018-04-08T04:26:14.602Z,12
2018-04-08T04:26:40.744Z,12
2018-04-08T04:27:06.881Z,16
2018-04-08T04:27:33.019Z,16
2018-04-08T04:27:59.160Z,16
2018-04-08T04:28:25.292Z,20
2018-04-08T04:28:51.463Z,20
2018-04-08T04:29:17.601Z,20
2018-04-08T04:29:43.758Z,24
2018-04-08T04:30:09.895Z,24
2018-04-08T04:30:36.035Z,28
2018-04-08T04:31:02.169Z,28
2018-04-08T04:31:28.305Z,32
2018-04-08T04:31:54.452Z,36
2018-04-08T04:32:20.584Z,36
2018-04-08T04:32:46.728Z,40
2018-04-08T04:33:12.886Z,44
2018-04-08T04:33:39.030Z,48
2018-04-08T04:34:05.172Z,48
2018-04-08T04:34:31.306Z,52
2018-04-08T04:34:57.451Z,56
2018-04-08T04:35:23.613Z,60
2018-04-08T04:35:49.775Z,60
2018-04-08T04:36:15.917Z,68
2018-04-08T04:36:42.055Z,72
2018-04-08T04:37:08.192Z,76
2018-04-08T04:37:34.335Z,80
2018-04-08T04:38:00.472Z,84
2018-04-08T04:38:26.609Z,92
2018-04-08T04:38:52.746Z,96
2018-04-08T04:39:18.891Z,100
2018-04-08T04:39:45.034Z,108
2018-04-08T04:40:11.173Z,112
2018-04-08T04:40:37.309Z,120
2018-04-08T04:41:03.472Z,128
2018-04-08T04:41:29.612Z,132
2018-04-08T04:41:55.745Z,140
2018-04-08T04:42:21.891Z,148
2018-04-08T04:42:48.021Z,156
2018-04-08T04:43:14.160Z,164
2018-04-08T04:43:40.296Z,172
2018-04-08T04:44:06.460Z,184
2018-04-08T04:44:32.597Z,192
2018-04-08T04:44:58.739Z,200
2018-04-08T04:45:24.895Z,212
2018-04-08T04:45:51.060Z,220
2018-04-08T04:46:17.195Z,232
2018-04-08T04:46:43.335Z,244
2018-04-08T04:47:09.470Z,256
2018-04-08T04:47:35.611Z,268
2018-04-08T04:48:01.747Z,276
2018-04-08T04:48:27.886Z,292
2018-04-08T04:48:54.025Z,308
2018-04-08T04:49:20.183Z,320
2018-04-08T04:49:46.349Z,336
2018-04-08T04:50:12.492Z,348
2018-04-08T04:50:38.632Z,364
2018-04-08T04:51:04.775Z,380
2018-04-08T04:51:30.914Z,396
2018-04-08T04:51:57.054Z,412
2018-04-08T04:52:23.189Z,432
2018-04-08T04:52:49.334Z,452
2018-04-08T04:53:15.468Z,468
2018-04-08T04:53:41.603Z,488
2018-04-08T04:54:07.747Z,508
2018-04-08T04:54:33.888Z,528
2018-04-08T04:55:00.027Z,552
2018-04-08T04:55:26.157Z,568
2018-04-08T04:55:52.324Z,592
2018-04-08T04:56:18.462Z,616
2018-04-08T04:56:44.605Z,640
2018-04-08T04:57:10.737Z,668
2018-04-08T04:57:36.875Z,692
2018-04-08T04:58:03.013Z,720
2018-04-08T04:58:29.160Z,748
2018-04-08T04:58:55.291Z,776
2018-04-08T04:59:21.435Z,808
2018-04-08T04:59:47.568Z,840
2018-04-08T05:00:13.712Z,868
2018-04-08T05:00:39.849Z,900
2018-04-08T05:01:05.988Z,932
2018-04-08T05:01:32.130Z,968
2018-04-08T05:01:58.262Z,1000
2018-04-08T05:02:24.401Z,1036
2018-04-08T05:02:50.547Z,1072
2018-04-08T05:03:16.687Z,1108
2018-04-08T05:03:42.831Z,1152
2018-04-08T05:04:08.957Z,1188
2018-04-08T05:04:35.098Z,1232
2018-04-08T05:05:01.236Z,1272
2018-04-08T05:05:27.367Z,1316
2018-04-08T05:05:53.511Z,1360
2018-04-08T05:06:19.645Z,1404
2018-04-08T05:06:45.810Z,1448
2018-04-08T05:07:11.946Z,1496
2018-04-08T05:07:38.087Z,1544
2018-04-08T05:08:04.242Z,1588
2018-04-08T05:08:30.386Z,1636
2018-04-08T05:08:56.519Z,1684
2018-04-08T05:09:22.690Z,1728
2018-04-08T05:09:48.826Z,1776
2018-04-08T05:10:14.974Z,1828
2018-04-08T05:10:41.109Z,1876
2018-04-08T05:11:07.246Z,1932
2018-04-08T05:11:33.387Z,1988
2018-04-08T05:11:59.527Z,2040
2018-04-08T05:12:25.663Z,2096
2018-04-08T05:12:51.807Z,2148
2018-04-08T05:13:17.941Z,2200
2018-04-08T05:13:44.083Z,2256
2018-04-08T05:14:10.218Z,2308
2018-04-08T05:14:36.353Z,2356
2018-04-08T05:15:02.492Z,2408
2018-04-08T05:15:28.630Z,2460
2018-04-08T05:15:54.774Z,2516
2018-04-08T05:16:20.923Z,2576
2018-04-08T05:16:47.065Z,2628
2018-04-08T05:17:13.209Z,2688
2018-04-08T05:17:39.367Z,2748
2018-04-08T05:18:05.511Z,2804
2018-04-08T05:18:31.671Z,2868
2018-04-08T05:18:57.806Z,2928
2018-04-08T05:19:23.948Z,2992
2018-04-08T05:19:50.115Z,3056
2018-04-08T05:20:16.281Z,3120
2018-04-08T05:20:42.417Z,3180
2018-04-08T05:21:08.560Z,3236
2018-04-08T05:21:34.702Z,3288
2018-04-08T05:22:00.846Z,3348
2018-04-08T05:22:27.006Z,3404
2018-04-08T05:22:53.147Z,3460
2018-04-08T05:23:19.291Z,3516
2018-04-08T05:23:45.423Z,3572
2018-04-08T05:24:11.563Z,3624
2018-04-08T05:24:37.702Z,3684
2018-04-08T05:25:03.844Z,3740
2018-04-08T05:25:29.981Z,3804
2018-04-08T05:25:56.139Z,3864
2018-04-08T05:26:22.283Z,3936
2018-04-08T05:26:48.445Z,4004
2018-04-08T05:27:14.580Z,4068
2018-04-08T05:27:40.726Z,4132
2018-04-08T05:28:06.902Z,4192
2018-04-08T05:28:32.989Z,4252
2018-04-08T05:28:59.128Z,4312
2018-04-08T05:29:25.298Z,4372
2018-04-08T05:29:51.407Z,4432
2018-04-08T05:30:17.545Z,4492
2018-04-08T05:30:43.680Z,4556
2018-04-08T05:31:09.824Z,4616
2018-04-08T05:31:35.970Z,4672
2018-04-08T05:32:02.118Z,4724
2018-04-08T05:32:28.242Z,4788
2018-04-08T05:32:54.380Z,4840
2018-04-08T05:33:20.517Z,4892
2018-04-08T05:33:46.683Z,4944
2018-04-08T05:34:12.832Z,4996
2018-04-08T05:34:38.990Z,5040
2018-04-08T05:35:05.127Z,5088
2018-04-08T05:35:31.269Z,5128
2018-04-08T05:35:57.406Z,5180
2018-04-08T05:36:23.547Z,5228
2018-04-08T05:36:49.702Z,5268
2018-04-08T05:37:15.841Z,5308
2018-04-08T05:37:41.977Z,5344
2018-04-08T05:38:08.145Z,5376
2018-04-08T05:38:34.311Z,5404
2018-04-08T05:39:00.442Z,5436
2018-04-08T05:39:26.585Z,5472
2018-04-08T05:39:52.725Z,5516
2018-04-08T05:40:18.887Z,5560
2018-04-08T05:40:45.022Z,5604
2018-04-08T05:41:11.162Z,5640
2018-04-08T05:41:37.297Z,5680
2018-04-08T05:42:03.444Z,5728
2018-04-08T05:42:29.579Z,5776
2018-04-08T05:42:55.739Z,5828
2018-04-08T05:43:21.873Z,5880
2018-04-08T05:43:48.019Z,5928
2018-04-08T05:44:14.155Z,5992
2018-04-08T05:44:40.300Z,6056
2018-04-08T05:45:06.437Z,6128
2018-04-08T05:45:32.577Z,6196
2018-04-08T05:45:58.722Z,6272
2018-04-08T05:46:24.857Z,6340
2018-04-08T05:46:51.022Z,6396
2018-04-08T05:47:17.157Z,6444
2018-04-08T05:47:43.296Z,6468
2018-04-08T05:48:09.431Z,6492
2018-04-08T05:48:35.572Z,6504
2018-04-08T05:49:01.714Z,6508
2018-04-08T05:49:27.843Z,6508
2018-04-08T05:49:53.984Z,6508
2018-04-08T05:50:20.123Z,6504
2018-04-08T05:50:46.281Z,6504
2018-04-08T05:51:12.428Z,6492
2018-04-08T05:51:38.562Z,6476
2018-04-08T05:52:04.704Z,6468
2018-04-08T05:52:30.835Z,6452
2018-04-08T05:52:56.973Z,6432
2018-04-08T05:53:23.122Z,6412
2018-04-08T05:53:49.262Z,6388
2018-04-08T05:54:15.403Z,6352
2018-04-08T05:54:41.537Z,6324
2018-04-08T05:55:07.841Z,6296
2018-04-08T05:55:34.008Z,6264
2018-04-08T05:56:00.185Z,6236
2018-04-08T05:56:26.351Z,6208
2018-04-08T05:56:52.489Z,6180
2018-04-08T05:57:18.629Z,6148
2018-04-08T05:57:44.765Z,6108
2018-04-08T05:58:10.902Z,6064
2018-04-08T05:58:37.047Z,6020
2018-04-08T05:59:03.187Z,5972
2018-04-08T05:59:29.318Z,5920
2018-04-08T05:59:55.464Z,5860
2018-04-08T06:00:21.601Z,5788
2018-04-08T06:00:47.741Z,5708
2018-04-08T06:01:13.882Z,5648
2018-04-08T06:01:40.026Z,5584
2018-04-08T06:02:06.185Z,5536
2018-04-08T06:02:32.325Z,5488
2018-04-08T06:02:58.467Z,5436
2018-04-08T06:03:24.606Z,5384
2018-04-08T06:03:50.789Z,5316
2018-04-08T06:04:16.874Z,5224
2018-04-08T06:04:43.123Z,5152
2018-04-08T06:05:09.266Z,5108
2018-04-08T06:05:35.569Z,5064
2018-04-08T06:06:01.715Z,5032
2018-04-08T06:06:27.853Z,5028
2018-04-08T06:06:53.989Z,4984
2018-04-08T06:07:20.124Z,4908
2018-04-08T06:07:46.286Z,4872
2018-04-08T06:08:12.433Z,4848
2018-04-08T06:08:38.596Z,4828
2018-04-08T06:09:04.728Z,4816
2018-04-08T06:09:30.867Z,4796
2018-04-08T06:09:57.009Z,4784
2018-04-08T06:10:23.172Z,4772
2018-04-08T06:10:49.334Z,4756
2018-04-08T06:11:15.480Z,4752
2018-04-08T06:11:41.618Z,4748
2018-04-08T06:12:07.791Z,4744
2018-04-08T06:12:33.941Z,4736
2018-04-08T06:13:00.070Z,4740
2018-04-08T06:13:26.203Z,4740
2018-04-08T06:13:52.347Z,4744
2018-04-08T06:14:18.481Z,4752
2018-04-08T06:14:44.627Z,4764
2018-04-08T06:15:10.788Z,4776
2018-04-08T06:15:36.925Z,4792
2018-04-08T06:16:03.069Z,4808